createdAt,value
2023-03-02T00:01:40.662Z,25.10
2023-03-02T00:04:34.765Z,21.77
2023-03-02T00:07:31.947Z,21.20
2023-03-02T00:10:21.102Z,23.33
2023-03-02T00:13:09.860Z,25.73
2023-03-02T00:16:00.310Z,22.47
2023-03-02T00:18:48.965Z,27.27
2023-03-02T00:21:37.964Z,23.00
2023-03-02T00:24:27.923Z,25.30
2023-03-02T00:27:18.389Z,22.57
2023-03-02T00:30:09.154Z,20.47
2023-03-02T00:32:59.036Z,22.63
2023-03-02T00:35:49.080Z,21.57
2023-03-02T00:38:38.106Z,20.93
2023-03-02T00:41:29.423Z,21.90
2023-03-02T00:44:18.431Z,23.40
2023-03-02T00:47:07.879Z,22.07
2023-03-02T00:49:57.399Z,23.47
2023-03-02T00:52:46.873Z,21.73
2023-03-02T00:55:35.543Z,25.70
2023-03-02T00:58:27.272Z,23.97
2023-03-02T01:01:18.673Z,21.03
2023-03-02T01:04:12.453Z,24.83
2023-03-02T01:07:03.166Z,21.33
2023-03-02T01:09:53.635Z,20.23
2023-03-02T01:12:42.237Z,22.10
2023-03-02T01:15:33.865Z,22.23
2023-03-02T01:18:22.890Z,20.80
2023-03-02T01:21:14.037Z,21.73
2023-03-02T01:24:03.422Z,19.50
2023-03-02T01:26:52.033Z,23.77
2023-03-02T01:29:41.240Z,21.00
2023-03-02T01:32:31.675Z,22.13
2023-03-02T01:35:20.435Z,20.40
2023-03-02T01:38:10.514Z,25.07
2023-03-02T01:40:59.268Z,20.13
2023-03-02T01:43:48.851Z,21.73
2023-03-02T01:46:37.991Z,21.00
2023-03-02T01:49:28.410Z,20.47
2023-03-02T01:52:21.556Z,21.53
2023-03-02T01:55:13.680Z,20.50
2023-03-02T01:58:06.843Z,21.80
2023-03-02T02:00:57.462Z,22.17
2023-03-02T02:03:51.249Z,20.80
2023-03-02T02:06:45.534Z,20.73
2023-03-02T02:09:37.455Z,18.43
2023-03-02T02:12:26.706Z,20.43
2023-03-02T02:15:16.454Z,19.67
2023-03-02T02:18:06.641Z,20.03
2023-03-02T02:20:56.772Z,19.60
2023-03-02T02:23:56.253Z,20.23
2023-03-02T02:26:49.669Z,20.60
2023-03-02T02:29:46.681Z,19.97
2023-03-02T02:32:39.214Z,21.70
2023-03-02T02:35:30.728Z,22.73
2023-03-02T02:38:21.547Z,22.43
2023-03-02T02:41:17.044Z,21.27
2023-03-02T02:44:07.965Z,19.43
2023-03-02T02:46:57.055Z,19.07
2023-03-02T02:49:47.522Z,19.10
2023-03-02T02:52:37.257Z,24.73
2023-03-02T02:55:27.662Z,19.10
2023-03-02T02:58:30.284Z,18.13
2023-03-02T03:01:25.416Z,19.17
2023-03-02T03:04:20.060Z,21.23
2023-03-02T03:07:14.106Z,19.17
2023-03-02T03:10:12.086Z,22.07
2023-03-02T03:13:00.797Z,17.93
2023-03-02T03:15:51.842Z,21.90
2023-03-02T03:18:44.568Z,18.37
2023-03-02T03:21:34.585Z,19.77
2023-03-02T03:24:25.022Z,19.30
2023-03-02T03:27:17.765Z,20.90
2023-03-02T03:30:08.830Z,18.50
2023-03-02T03:32:57.621Z,22.30
2023-03-02T03:35:48.807Z,21.27
2023-03-02T03:38:37.604Z,22.30
2023-03-02T03:41:28.440Z,22.80
2023-03-02T03:44:17.205Z,22.30
2023-03-02T03:47:07.316Z,21.83
2023-03-02T03:49:56.619Z,21.47
2023-03-02T03:52:47.086Z,21.53
2023-03-02T03:55:44.554Z,21.63
2023-03-02T03:58:34.558Z,19.43
2023-03-02T04:01:23.539Z,18.87
2023-03-02T04:04:15.982Z,21.93
2023-03-02T04:07:05.248Z,18.63
2023-03-02T04:10:05.517Z,22.43
2023-03-02T04:12:57.508Z,18.90
2023-03-02T04:15:47.309Z,19.60
2023-03-02T04:18:37.084Z,23.00
2023-03-02T04:21:26.670Z,20.60
2023-03-02T04:24:18.482Z,23.43
2023-03-02T04:27:08.797Z,20.73
2023-03-02T04:29:58.738Z,23.50
2023-03-02T04:32:47.387Z,19.17
2023-03-02T04:35:37.033Z,26.63
2023-03-02T04:38:29.399Z,21.47
2023-03-02T04:41:20.347Z,18.43
2023-03-02T04:44:10.355Z,23.33
2023-03-02T04:46:59.811Z,23.13
2023-03-02T04:49:50.396Z,21.77
2023-03-02T04:52:39.549Z,21.40
2023-03-02T04:55:28.731Z,19.10
2023-03-02T04:58:18.301Z,24.00
2023-03-02T05:01:08.424Z,20.03
2023-03-02T05:03:58.066Z,23.50
2023-03-02T05:06:47.299Z,23.53
2023-03-02T05:09:36.050Z,21.13
2023-03-02T05:12:26.141Z,20.53
2023-03-02T05:15:14.922Z,23.40
2023-03-02T05:18:08.080Z,23.00
2023-03-02T05:20:57.199Z,21.87
2023-03-02T05:23:46.316Z,24.40
2023-03-02T05:26:35.622Z,24.50
2023-03-02T05:29:24.875Z,22.50
2023-03-02T05:32:13.566Z,21.87
2023-03-02T05:35:04.154Z,22.93
2023-03-02T05:37:52.813Z,22.83
2023-03-02T05:40:42.922Z,27.17
2023-03-02T05:43:31.593Z,23.50
2023-03-02T05:46:22.011Z,22.63
2023-03-02T05:49:11.069Z,23.77
2023-03-02T05:52:02.339Z,19.03
2023-03-02T05:54:50.943Z,19.93
2023-03-02T05:57:39.842Z,24.13
2023-03-02T06:00:28.861Z,25.77
2023-03-02T06:03:18.635Z,23.33
2023-03-02T06:06:07.425Z,21.27
2023-03-02T06:08:58.318Z,20.27
2023-03-02T06:11:46.936Z,23.80
2023-03-02T06:14:36.841Z,22.93
2023-03-02T06:17:26.093Z,21.97
2023-03-02T06:20:15.633Z,24.93
2023-03-02T06:23:05.106Z,21.30
2023-03-02T06:25:55.478Z,20.13
2023-03-02T06:28:52.070Z,23.47
2023-03-02T06:31:43.674Z,24.23
2023-03-02T06:34:34.527Z,23.13
2023-03-02T06:37:24.838Z,20.70
2023-03-02T06:40:15.073Z,24.43
2023-03-02T06:43:05.020Z,24.07
2023-03-02T06:45:55.081Z,21.60
2023-03-02T06:48:44.213Z,21.93
2023-03-02T06:51:33.501Z,22.70
2023-03-02T06:54:24.039Z,22.33
2023-03-02T06:57:13.791Z,22.03
2023-03-02T07:00:11.614Z,22.03
2023-03-02T07:03:00.603Z,22.60
2023-03-02T07:05:51.799Z,18.63
2023-03-02T07:08:41.889Z,18.40
2023-03-02T07:11:30.726Z,22.47
2023-03-02T07:14:20.454Z,19.70
2023-03-02T07:17:10.455Z,17.47
2023-03-02T07:19:59.497Z,21.87
2023-03-02T07:22:48.157Z,22.47
2023-03-02T07:25:37.276Z,17.20
2023-03-02T07:28:26.181Z,18.20
2023-03-02T07:31:16.056Z,17.07
2023-03-02T07:34:06.039Z,23.30
2023-03-02T07:36:55.469Z,21.97
2023-03-02T07:39:44.113Z,16.67
2023-03-02T07:42:34.021Z,16.87
2023-03-02T07:45:25.032Z,19.00
2023-03-02T07:48:14.470Z,15.53
2023-03-02T07:51:06.880Z,17.47
2023-03-02T07:53:56.315Z,18.73
2023-03-02T07:56:44.972Z,20.27
2023-03-02T07:59:33.948Z,21.10
2023-03-02T08:02:22.711Z,18.07
2023-03-02T08:05:12.322Z,16.07
2023-03-02T08:08:02.701Z,19.50
2023-03-02T08:10:51.345Z,16.03
2023-03-02T08:13:41.037Z,13.63
2023-03-02T08:16:30.650Z,16.97
2023-03-02T08:19:20.629Z,17.83
2023-03-02T08:22:09.268Z,15.00
2023-03-02T08:24:59.273Z,14.37
2023-03-02T08:27:48.139Z,14.77
2023-03-02T08:30:36.774Z,18.93
2023-03-02T08:33:25.945Z,14.00
2023-03-02T08:36:17.867Z,16.57
2023-03-02T08:39:07.100Z,17.23
2023-03-02T08:41:57.691Z,19.40
2023-03-02T08:44:46.380Z,18.03
2023-03-02T08:47:35.495Z,16.27
2023-03-02T08:50:24.146Z,15.23
2023-03-02T08:53:13.678Z,21.67
2023-03-02T08:56:02.480Z,16.13
2023-03-02T08:58:54.183Z,19.43
2023-03-02T09:01:43.933Z,18.37
2023-03-02T09:04:33.119Z,16.63
2023-03-02T09:07:21.712Z,15.37
2023-03-02T09:10:12.914Z,14.37
2023-03-02T09:13:01.728Z,16.30
2023-03-02T09:15:52.170Z,18.23
2023-03-02T09:18:41.440Z,15.13
2023-03-02T09:21:30.103Z,17.20
2023-03-02T09:24:19.771Z,15.77
2023-03-02T09:27:08.435Z,17.70
2023-03-02T09:29:57.862Z,14.40
2023-03-02T09:32:49.027Z,17.40
2023-03-02T09:35:40.512Z,17.77
2023-03-02T09:38:29.543Z,13.67
2023-03-02T09:41:51.793Z,14.00
2023-03-02T09:45:04.269Z,16.93
2023-03-02T09:48:06.082Z,13.15
2023-03-02T09:51:07.191Z,16.70
2023-03-02T09:54:03.491Z,10.70
2023-03-02T09:56:56.472Z,15.45
2023-03-02T09:59:48.923Z,15.25
2023-03-02T10:02:45.005Z,15.15
2023-03-02T10:05:40.065Z,14.07
2023-03-02T10:08:32.557Z,12.90
2023-03-02T10:11:30.673Z,13.90
2023-03-02T10:14:24.907Z,12.20
2023-03-02T10:17:35.524Z,8.23
2023-03-02T10:20:35.376Z,12.80
2023-03-02T10:23:43.534Z,15.10
2023-03-02T10:26:40.768Z,12.32
2023-03-02T10:29:48.826Z,14.13
2023-03-02T10:32:42.976Z,16.55
2023-03-02T10:35:33.157Z,14.60
2023-03-02T10:38:24.639Z,10.70
2023-03-02T10:41:19.638Z,13.68
2023-03-02T10:44:17.170Z,12.75
2023-03-02T10:47:07.501Z,10.63
2023-03-02T10:49:58.026Z,12.50
2023-03-02T10:52:59.720Z,8.70
2023-03-02T10:55:52.017Z,11.43
2023-03-02T10:58:41.957Z,11.25
2023-03-02T11:01:32.530Z,8.27
2023-03-02T11:04:21.750Z,11.43
2023-03-02T11:07:13.063Z,10.10
2023-03-02T11:10:03.985Z,9.25
2023-03-02T11:12:54.202Z,13.05
2023-03-02T11:15:48.640Z,10.77
2023-03-02T11:18:41.272Z,10.48
2023-03-02T11:21:37.182Z,12.27
2023-03-02T11:24:33.289Z,9.25
2023-03-02T11:27:28.147Z,10.00
2023-03-02T11:30:22.857Z,11.57
2023-03-02T11:33:18.562Z,12.75
2023-03-02T11:36:13.261Z,12.85
2023-03-02T11:39:05.839Z,10.50
2023-03-02T11:41:55.710Z,12.48
2023-03-02T11:44:44.394Z,12.50
2023-03-02T11:47:34.715Z,12.40
2023-03-02T11:50:27.020Z,9.32
2023-03-02T11:53:20.341Z,10.48
2023-03-02T11:56:10.070Z,10.98
2023-03-02T11:59:04.699Z,11.43
2023-03-02T12:01:56.687Z,9.52
2023-03-02T12:04:45.595Z,11.38
2023-03-02T12:07:36.024Z,10.10
2023-03-02T12:10:28.532Z,14.85
2023-03-02T12:13:22.161Z,14.60
2023-03-02T12:16:21.163Z,9.50
2023-03-02T12:19:16.034Z,9.43
2023-03-02T12:22:09.299Z,13.07
2023-03-02T12:25:05.902Z,11.95
2023-03-02T12:27:57.288Z,11.35
2023-03-02T12:30:56.633Z,8.73
2023-03-02T12:33:49.913Z,11.80
2023-03-02T12:36:43.972Z,10.32
2023-03-02T12:39:50.779Z,10.13
2023-03-02T12:42:50.256Z,8.50
2023-03-02T12:45:54.275Z,14.07
2023-03-02T12:48:46.310Z,11.07
2023-03-02T12:51:49.774Z,9.75
2023-03-02T12:54:38.432Z,12.20
2023-03-02T12:57:27.847Z,13.23
2023-03-02T13:00:21.282Z,11.48
2023-03-02T13:03:15.963Z,9.30
2023-03-02T13:06:11.914Z,12.20
2023-03-02T13:09:01.452Z,9.77
2023-03-02T13:11:54.710Z,8.60
2023-03-02T13:14:48.519Z,9.50
2023-03-02T13:17:38.456Z,10.52
2023-03-02T13:20:30.148Z,11.52
2023-03-02T13:23:20.330Z,10.10
2023-03-02T13:26:09.807Z,11.55
2023-03-02T13:29:02.915Z,12.05
2023-03-02T13:31:53.488Z,8.93
2023-03-02T13:34:49.454Z,10.55
2023-03-02T13:37:43.781Z,6.60
2023-03-02T13:40:39.706Z,10.98
2023-03-02T13:43:46.087Z,7.07
2023-03-02T13:46:37.854Z,8.70
2023-03-02T13:49:29.952Z,9.38
2023-03-02T13:52:26.743Z,11.02
2023-03-02T13:55:17.018Z,10.32
2023-03-02T13:58:05.635Z,8.38
2023-03-02T14:00:55.440Z,14.90
2023-03-02T14:03:44.100Z,12.48
2023-03-02T14:06:33.853Z,9.98
2023-03-02T14:09:23.928Z,8.57
2023-03-02T14:12:23.949Z,6.65
2023-03-02T14:15:17.024Z,8.75
2023-03-02T14:18:17.370Z,7.55
2023-03-02T14:21:07.300Z,7.95
2023-03-02T14:23:58.774Z,6.10
2023-03-02T14:26:50.851Z,10.27
2023-03-02T14:29:39.677Z,7.45
2023-03-02T14:32:29.632Z,9.07
2023-03-02T14:35:19.063Z,14.27
2023-03-02T14:38:08.233Z,13.63
2023-03-02T14:40:57.376Z,7.18
2023-03-02T14:43:47.783Z,8.32
2023-03-02T14:46:36.458Z,8.27
2023-03-02T14:49:26.104Z,9.25
2023-03-02T14:52:21.487Z,7.63
2023-03-02T14:55:18.754Z,9.48
2023-03-02T14:58:15.636Z,10.32
2023-03-02T15:01:06.392Z,11.32
2023-03-02T15:03:55.009Z,8.82
2023-03-02T15:06:45.186Z,10.73
2023-03-02T15:09:33.808Z,11.07
2023-03-02T15:12:24.162Z,8.65
2023-03-02T15:15:13.883Z,10.63
2023-03-02T15:18:03.995Z,12.88
2023-03-02T15:20:52.587Z,7.38
2023-03-02T15:23:41.894Z,8.80
2023-03-02T15:26:30.937Z,13.10
2023-03-02T15:29:20.410Z,9.68
2023-03-02T15:32:10.224Z,13.13
2023-03-02T15:35:00.195Z,13.48
2023-03-02T15:37:48.784Z,7.85
2023-03-02T15:40:38.147Z,13.93
2023-03-02T15:43:26.768Z,12.93
2023-03-02T15:46:16.837Z,11.60
2023-03-02T15:49:05.491Z,11.50
2023-03-02T15:51:57.622Z,10.10
2023-03-02T15:54:46.266Z,9.77
2023-03-02T15:57:38.027Z,9.27
2023-03-02T16:00:26.825Z,11.35
2023-03-02T16:03:15.938Z,11.82
2023-03-02T16:06:05.088Z,10.50
2023-03-02T16:08:55.578Z,7.95
2023-03-02T16:11:44.346Z,7.65
2023-03-02T16:14:35.137Z,10.80
2023-03-02T16:17:23.806Z,12.80
2023-03-02T16:20:13.626Z,10.48
2023-03-02T16:23:06.411Z,11.65
2023-03-02T16:25:56.359Z,10.48
2023-03-02T16:28:45.562Z,10.20
2023-03-02T16:31:37.700Z,10.35
2023-03-02T16:34:26.895Z,17.77
2023-03-02T16:37:15.587Z,11.18
2023-03-02T16:40:04.727Z,11.32
2023-03-02T16:42:56.077Z,11.23
2023-03-02T16:45:44.806Z,11.30
2023-03-02T16:48:33.906Z,14.15
2023-03-02T16:51:22.808Z,11.95
2023-03-02T16:54:12.044Z,9.60
2023-03-02T16:57:01.158Z,11.35
2023-03-02T16:59:52.459Z,11.05
2023-03-02T17:02:41.128Z,9.23
2023-03-02T17:05:29.720Z,13.93
2023-03-02T17:08:18.887Z,10.20
2023-03-02T17:11:08.638Z,14.20
2023-03-02T17:13:57.289Z,13.60
2023-03-02T17:16:47.256Z,9.70
2023-03-02T17:19:36.771Z,14.10
2023-03-02T17:22:26.704Z,11.40
2023-03-02T17:25:16.690Z,9.75
2023-03-02T17:28:06.983Z,11.15
2023-03-02T17:30:55.635Z,12.60
2023-03-02T17:33:46.138Z,9.23
2023-03-02T17:36:36.836Z,10.07
2023-03-02T17:39:25.781Z,19.10
2023-03-02T17:42:14.764Z,16.13
2023-03-02T17:45:04.056Z,8.63
2023-03-02T17:47:54.037Z,14.25
2023-03-02T17:50:44.409Z,14.13
2023-03-02T17:53:33.079Z,13.23
2023-03-02T17:56:25.308Z,21.67
2023-03-02T17:59:14.598Z,18.25
2023-03-02T18:02:03.398Z,15.93
2023-03-02T18:04:52.805Z,18.65
2023-03-02T18:07:42.817Z,16.73
2023-03-02T18:10:32.134Z,16.13
2023-03-02T18:13:20.772Z,16.30
2023-03-02T18:16:10.150Z,21.40
2023-03-02T18:18:58.846Z,17.45
2023-03-02T18:21:48.325Z,21.23
2023-03-02T18:24:38.692Z,20.75
2023-03-02T18:27:27.904Z,25.73
2023-03-02T18:30:17.814Z,24.95
2023-03-02T18:33:07.657Z,21.33
2023-03-02T18:35:57.307Z,22.33
2023-03-02T18:38:46.894Z,25.48
2023-03-02T18:41:37.136Z,30.67
2023-03-02T18:44:28.063Z,27.77
2023-03-02T18:47:19.020Z,25.48
2023-03-02T18:50:08.822Z,23.60
2023-03-02T18:52:58.971Z,22.50
2023-03-02T18:55:47.898Z,25.90
2023-03-02T18:58:38.398Z,23.52
2023-03-02T19:01:31.977Z,24.23
2023-03-02T19:04:23.970Z,22.70
2023-03-02T19:07:12.597Z,25.25
2023-03-02T19:10:02.179Z,26.75
2023-03-02T19:12:52.011Z,26.58
2023-03-02T19:15:42.684Z,27.02
2023-03-02T19:18:31.956Z,25.45
2023-03-02T19:21:21.529Z,23.58
2023-03-02T19:24:10.721Z,26.80
2023-03-02T19:26:59.843Z,29.48
2023-03-02T19:29:49.583Z,26.38
2023-03-02T19:32:39.807Z,30.05
2023-03-02T19:35:30.861Z,24.00
2023-03-02T19:38:19.565Z,25.20
2023-03-02T19:41:11.092Z,37.13
2023-03-02T19:44:00.135Z,28.85
2023-03-02T19:46:49.268Z,34.10
2023-03-02T19:49:39.213Z,25.27
2023-03-02T19:52:28.901Z,25.20
2023-03-02T19:55:18.156Z,28.75
2023-03-02T19:58:08.015Z,28.23
2023-03-02T20:00:58.236Z,26.35
2023-03-02T20:03:48.523Z,28.38
2023-03-02T20:06:38.540Z,29.27
2023-03-02T20:09:28.289Z,32.70
2023-03-02T20:12:16.891Z,33.60
2023-03-02T20:15:07.672Z,28.45
2023-03-02T20:17:56.830Z,28.33
2023-03-02T20:20:47.517Z,31.15
2023-03-02T20:23:39.073Z,34.03
2023-03-02T20:26:28.729Z,31.85
2023-03-02T20:29:18.304Z,36.42
2023-03-02T20:32:08.907Z,41.07
2023-03-02T20:34:58.412Z,50.55
2023-03-02T20:37:47.158Z,49.97
2023-03-02T20:40:38.947Z,50.58
2023-03-02T20:43:28.632Z,71.05
2023-03-02T20:46:23.074Z,58.13
2023-03-02T20:49:15.766Z,62.10
2023-03-02T20:52:05.918Z,58.07
2023-03-02T20:54:54.817Z,55.90
2023-03-02T21:00:54.157Z,53.57
2023-03-02T21:03:43.588Z,58.60
2023-03-02T21:06:33.740Z,46.03
2023-03-02T21:09:22.785Z,53.70
2023-03-02T21:12:12.226Z,49.03
2023-03-02T21:15:02.591Z,51.83
2023-03-02T21:17:54.968Z,49.10
2023-03-02T21:20:43.884Z,50.10
2023-03-02T21:23:32.640Z,52.40
2023-03-02T21:26:22.347Z,64.47
2023-03-02T21:29:13.145Z,71.50
2023-03-02T21:32:03.632Z,70.20
2023-03-02T21:34:53.271Z,55.87
2023-03-02T21:37:42.335Z,55.63
2023-03-02T21:40:34.189Z,52.17
2023-03-02T21:43:22.801Z,110.87
2023-03-02T21:46:13.862Z,138.20
2023-03-02T21:49:04.056Z,97.07
2023-03-02T21:51:53.589Z,92.53
2023-03-02T21:54:43.318Z,79.87
2023-03-02T21:57:31.975Z,71.50
2023-03-02T22:00:23.726Z,68.30
2023-03-02T22:03:14.274Z,73.13
2023-03-02T22:06:05.450Z,68.77
2023-03-02T22:08:55.639Z,62.30
2023-03-02T22:11:46.284Z,60.90
2023-03-02T22:14:34.910Z,63.80
2023-03-02T22:17:25.214Z,62.90
2023-03-02T22:20:18.697Z,59.43
2023-03-02T22:23:13.899Z,59.73
2023-03-02T22:26:14.873Z,61.93
2023-03-02T22:29:14.155Z,56.07
2023-03-02T22:32:17.006Z,53.57
2023-03-02T22:35:20.651Z,53.73
2023-03-02T22:38:19.754Z,55.60
2023-03-02T22:41:14.784Z,54.47
2023-03-02T22:44:10.165Z,58.47
2023-03-02T22:46:59.106Z,53.60
2023-03-02T22:49:55.482Z,55.33
2023-03-02T22:52:45.290Z,57.57
2023-03-02T22:55:41.385Z,54.07
2023-03-02T22:58:43.683Z,54.20
2023-03-02T23:01:41.099Z,59.17
2023-03-02T23:04:36.832Z,54.57
2023-03-02T23:07:26.181Z,56.50
2023-03-02T23:10:19.154Z,55.13
2023-03-02T23:13:10.717Z,54.00
2023-03-02T23:16:00.140Z,52.27
2023-03-02T23:18:49.813Z,53.50
2023-03-02T23:21:41.305Z,52.57
2023-03-02T23:24:30.718Z,52.00
2023-03-02T23:27:19.511Z,55.23
2023-03-02T23:30:11.351Z,51.80
2023-03-02T23:32:59.991Z,53.63
2023-03-02T23:35:49.072Z,52.60
2023-03-02T23:38:39.010Z,52.27
2023-03-02T23:41:28.807Z,53.27
2023-03-02T23:44:17.858Z,53.80
2023-03-02T23:47:08.398Z,53.30
2023-03-02T23:49:57.052Z,62.20
2023-03-02T23:52:46.381Z,59.73
2023-03-02T23:55:36.630Z,59.43
2023-03-02T23:58:25.662Z,55.40
